Time;durP1;ratioP1;P1;durP2;ratioP2;P2;SDS_P1;SDS_P2;PMS_P1;PMS_P2;Temp;Humidity;BMP_temperature;BMP_pressure;BME280_temperature;BME280_humidity;BME280_pressure;Samples;Min_cycle;Max_cycle;Signal;HPM_P1;HPM_P2
2022/04/21 00:00:53;;;;;;;7.20;6.60;;;;;;;4.10;69.63;94922.25;5037881;28;20202;-67
2022/04/21 00:03:22;;;;;;;7.00;6.50;;;;;;;4.04;68.92;94920.78;5038388;28;20301;-67
2022/04/21 00:05:50;;;;;;;7.60;7.00;;;;;;;4.00;68.68;94919.00;5038309;28;20196;-67
2022/04/21 00:08:20;;;;;;;7.05;6.55;;;;;;;3.96;68.75;94918.81;5038288;28;20186;-68
2022/04/21 00:10:49;;;;;;;7.50;6.80;;;;;;;3.94;69.39;94917.53;5038758;28;20187;-67
2022/04/21 00:13:17;;;;;;;6.68;6.18;;;;;;;3.93;68.94;94921.38;5037010;28;20201;-67
2022/04/21 00:15:45;;;;;;;7.68;6.88;;;;;;;3.89;69.24;94918.47;5037188;28;20206;-67
2022/04/21 00:18:18;;;;;;;7.15;6.55;;;;;;;3.86;69.33;94919.91;5037880;28;20187;-68
2022/04/21 00:20:47;;;;;;;7.57;6.97;;;;;;;3.85;69.76;94929.22;5037102;28;20198;-68
2022/04/21 00:23:30;;;;;;;7.50;6.90;;;;;;;3.84;69.24;94932.22;5038104;28;20241;-68
2022/04/21 00:26:00;;;;;;;7.80;7.20;;;;;;;3.81;69.68;94928.22;5037434;28;20206;-68
2022/04/21 00:28:28;;;;;;;7.15;6.65;;;;;;;3.78;69.03;94923.38;5020360;28;20257;-68
2022/04/21 00:30:59;;;;;;;7.65;7.05;;;;;;;3.78;68.92;94923.38;5037482;28;20513;-67
2022/04/21 00:33:28;;;;;;;7.63;7.03;;;;;;;3.77;69.34;94935.41;5037737;28;20233;-67
2022/04/21 00:35:56;;;;;;;7.32;6.75;;;;;;;3.77;68.99;94931.88;5037232;28;20194;-68
2022/04/21 00:38:25;;;;;;;7.68;7.10;;;;;;;3.74;69.06;94929.75;5003666;28;20320;-68
2022/04/21 00:40:53;;;;;;;7.60;7.00;;;;;;;3.70;69.00;94931.50;5037555;28;20187;-68
2022/04/21 00:43:22;;;;;;;7.57;6.97;;;;;;;3.67;69.44;94935.69;5037365;28;20654;-68
2022/04/21 00:45:52;;;;;;;7.57;7.05;;;;;;;3.64;70.08;94927.31;5036585;28;20207;-68
2022/04/21 00:48:20;;;;;;;7.40;6.90;;;;;;;3.65;70.18;94931.66;5037011;28;20623;-68
2022/04/21 00:50:48;;;;;;;7.32;6.82;;;;;;;3.62;70.19;94922.97;5036882;28;20626;-67
2022/04/21 00:53:16;;;;;;;7.35;6.75;;;;;;;3.59;69.71;94922.78;5036699;28;20228;-67
2022/04/21 00:55:44;;;;;;;7.95;7.35;;;;;;;3.56;70.54;94926.16;5037173;28;20195;-67
2022/04/21 00:58:12;;;;;;;7.45;6.90;;;;;;;3.54;70.44;94925.66;5019432;28;20198;-68
2022/04/21 01:00:39;;;;;;;7.25;6.75;;;;;;;3.47;69.93;94922.56;5036883;28;20189;-68
2022/04/21 01:03:06;;;;;;;7.50;6.90;;;;;;;3.36;69.98;94916.56;5036629;28;20214;-68
2022/04/21 01:05:38;;;;;;;7.47;6.88;;;;;;;3.30;70.49;94923.25;5019622;28;20194;-68
2022/04/21 01:08:09;;;;;;;7.82;7.22;;;;;;;3.24;70.53;94930.75;5036854;28;20210;-67
2022/04/21 01:10:37;;;;;;;7.68;7.07;;;;;;;3.20;70.92;94926.25;5019356;28;20517;-67
2022/04/21 01:13:07;;;;;;;7.25;6.75;;;;;;;3.18;71.43;94915.63;5036188;28;20199;-67
2022/04/21 01:15:35;;;;;;;7.68;7.07;;;;;;;3.16;71.37;94912.44;5036738;28;20190;-67
2022/04/21 01:18:04;;;;;;;7.72;7.13;;;;;;;3.12;71.48;94914.97;5019446;28;20198;-67
2022/04/21 01:20:34;;;;;;;8.27;7.65;;;;;;;3.09;71.53;94896.50;5036634;28;20245;-67
2022/04/21 01:23:02;;;;;;;8.50;7.88;;;;;;;3.08;71.04;94892.16;5019442;28;20269;-67
2022/04/21 01:25:38;;;;;;;9.48;8.68;;;;;;;3.02;71.06;94887.16;5037038;28;20187;-67
2022/04/21 01:28:07;;;;;;;10.55;9.75;;;;;;;2.98;70.54;94880.69;5036753;28;20186;-67
2022/04/21 01:30:35;;;;;;;11.57;10.77;;;;;;;2.92;70.58;94879.22;5036802;28;20193;-67
2022/04/21 01:33:03;;;;;;;10.95;10.05;;;;;;;2.89;70.85;94889.59;5036759;28;20202;-67
2022/04/21 01:35:31;;;;;;;10.68;9.88;;;;;;;2.89;71.38;94883.34;5019671;28;20198;-67
2022/04/21 01:43:33;;;;;;;9.45;8.75;;;;;;;2.99;72.00;94879.59;5018710;28;20218;-67
2022/04/21 01:46:04;;;;;;;9.55;8.75;;;;;;;3.03;71.31;94875.94;5028465;28;20204;-67
2022/04/21 01:48:32;;;;;;;9.23;8.52;;;;;;;3.12;71.63;94878.72;5035925;28;20183;-68
2022/04/21 01:51:00;;;;;;;8.98;8.27;;;;;;;3.15;70.97;94872.63;5036111;28;20183;-68
2022/04/21 01:53:30;;;;;;;9.20;8.50;;;;;;;3.19;70.91;94878.28;5036178;28;20194;-68
2022/04/21 01:55:58;;;;;;;8.85;8.25;;;;;;;3.22;70.37;94878.47;5018900;28;20256;-67
2022/04/21 01:58:26;;;;;;;11.20;10.40;;;;;;;3.18;70.33;94871.22;5019440;28;20214;-67
2022/04/21 02:00:54;;;;;;;10.73;9.82;;;;;;;3.07;70.81;94889.75;5035295;28;20213;-67
2022/04/21 02:03:22;;;;;;;9.63;8.93;;;;;;;3.02;71.18;94879.78;5035246;28;20314;-67
2022/04/21 02:05:50;;;;;;;8.75;8.15;;;;;;;3.11;71.11;94871.66;5034645;28;20226;-67
2022/04/21 02:08:18;;;;;;;10.48;9.70;;;;;;;3.05;70.93;94860.09;5018248;28;20540;-67
2022/04/21 02:10:49;;;;;;;9.90;9.20;;;;;;;2.99;70.72;94866.78;5018929;28;20238;-68
2022/04/21 02:13:17;;;;;;;9.88;9.07;;;;;;;2.90;71.10;94868.63;5018589;28;20194;-67
2022/04/21 02:15:45;;;;;;;10.50;9.68;;;;;;;2.85;71.52;94863.31;5035569;28;20191;-68
2022/04/21 02:18:17;;;;;;;10.30;9.52;;;;;;;2.80;71.70;94855.25;5035683;28;20187;-68
2022/04/21 02:20:45;;;;;;;10.65;9.75;;;;;;;2.78;71.74;94850.09;5018309;28;20285;-68
2022/04/21 02:23:13;;;;;;;10.73;9.93;;;;;;;2.76;71.69;94865.13;5035481;28;20248;-68
2022/04/21 02:25:41;;;;;;;11.00;10.13;;;;;;;2.69;71.84;94857.41;5035781;28;20191;-68
2022/04/21 02:28:11;;;;;;;10.27;9.40;;;;;;;2.68;72.38;94865.88;5035713;28;20186;-68
2022/04/21 02:30:39;;;;;;;10.70;9.90;;;;;;;2.68;72.71;94872.13;5035607;28;20186;-68
2022/04/21 02:33:06;;;;;;;10.48;9.57;;;;;;;2.67;72.50;94875.16;5034603;28;20212;-67
2022/04/21 02:35:34;;;;;;;11.05;10.15;;;;;;;2.67;72.67;94884.13;5017919;28;20244;-67
2022/04/21 02:38:02;;;;;;;10.63;9.82;;;;;;;2.65;72.47;94881.75;5034519;28;20203;-67
2022/04/21 02:40:30;;;;;;;10.65;9.85;;;;;;;2.65;72.74;94878.19;5034273;28;20199;-67
2022/04/21 02:42:58;;;;;;;10.20;9.40;;;;;;;2.64;72.66;94880.09;5035347;28;20190;-67
2022/04/21 02:45:29;;;;;;;10.00;9.10;;;;;;;2.62;72.51;94884.28;5034314;28;20229;-67
2022/04/21 02:47:59;;;;;;;10.07;9.38;;;;;;;2.61;72.70;94877.19;5018049;28;20212;-68
2022/04/21 02:50:26;;;;;;;10.48;9.68;;;;;;;2.60;72.98;94881.84;5017925;28;20206;-68
2022/04/21 02:52:53;;;;;;;11.80;10.90;;;;;;;2.59;72.84;94888.41;5035205;28;20209;-68
2022/04/21 02:58:07;;;;;;;10.38;9.60;;;;;;;2.47;72.00;94877.25;5034814;28;20189;-68
2022/04/21 03:00:36;;;;;;;10.75;9.95;;;;;;;2.39;71.77;94883.41;5017894;28;20201;-68
2022/04/21 03:03:05;;;;;;;10.27;9.48;;;;;;;2.31;72.03;94878.69;5035158;28;20197;-67
2022/04/21 03:05:35;;;;;;;10.57;9.77;;;;;;;2.29;72.13;94880.91;5035152;28;20193;-67
2022/04/21 03:08:04;;;;;;;10.15;9.45;;;;;;;2.28;72.50;94880.09;5017766;28;20209;-67
2022/04/21 03:10:32;;;;;;;10.32;9.52;;;;;;;2.33;72.77;94881.91;5018144;28;20202;-66
2022/04/21 03:13:00;;;;;;;9.88;9.15;;;;;;;2.34;72.44;94883.53;5017613;28;20206;-68
2022/04/21 03:15:29;;;;;;;10.13;9.32;;;;;;;2.31;72.66;94874.03;5017889;28;20206;-67
2022/04/21 03:17:58;;;;;;;10.20;9.30;;;;;;;2.31;72.39;94876.75;5035051;28;20216;-67
2022/04/21 03:26:14;;;;;;;10.73;9.98;;;;;;;2.18;72.43;94864.00;4936938;29;20178;-70
2022/04/21 03:28:41;;;;;;;10.15;9.45;;;;;;;2.19;72.58;94868.31;4939879;29;20213;-70
2022/04/21 03:31:10;;;;;;;10.63;9.82;;;;;;;2.18;72.73;94869.44;4939737;29;20286;-70
2022/04/21 03:33:40;;;;;;;12.05;11.15;;;;;;;2.17;72.50;94874.06;4939645;29;20231;-70
2022/04/21 03:36:08;;;;;;;12.05;11.05;;;;;;;2.18;72.51;94877.59;4939628;29;20206;-68
2022/04/21 03:38:37;;;;;;;12.93;12.02;;;;;;;2.19;72.81;94879.22;4940010;29;20198;-69
2022/04/21 03:41:05;;;;;;;11.10;10.30;;;;;;;2.20;72.57;94880.81;4955727;29;20213;-68
2022/04/21 03:43:33;;;;;;;11.30;10.50;;;;;;;2.20;72.37;94878.09;4939549;29;20240;-68
2022/04/21 03:46:04;;;;;;;11.25;10.45;;;;;;;2.20;72.61;94874.56;4955365;29;20205;-68
2022/04/21 03:48:35;;;;;;;11.02;10.20;;;;;;;2.18;73.10;94877.59;4939560;29;20217;-69
2022/04/21 03:51:04;;;;;;;11.52;10.63;;;;;;;2.20;73.03;94880.00;4923770;29;20198;-69
2022/04/21 03:53:32;;;;;;;11.63;10.73;;;;;;;2.19;72.96;94873.78;4939158;29;20218;-68
2022/04/21 03:56:00;;;;;;;11.27;10.38;;;;;;;2.18;72.87;94874.88;4915989;29;20208;-68
2022/04/21 03:58:28;;;;;;;11.90;11.00;;;;;;;2.21;73.31;94874.25;4923775;29;20222;-68
2022/04/21 04:00:56;;;;;;;11.13;10.30;;;;;;;2.26;73.66;94870.63;4998591;28;20230;-68
2022/04/21 04:03:26;;;;;;;14.40;13.05;;;;;;;2.29;73.57;94876.28;5018167;28;20193;-68
2022/04/21 04:05:55;;;;;;;21.77;19.48;;;;;;;2.29;73.28;94879.00;5016977;28;20206;-68
2022/04/21 04:11:11;;;;;;;21.10;19.02;;;;;;;2.35;73.57;94882.41;5017704;28;20229;-68
2022/04/21 04:13:39;;;;;;;19.85;17.85;;;;;;;2.39;73.64;94883.41;5001145;28;20527;-68
2022/04/21 04:16:09;;;;;;;17.45;15.85;;;;;;;2.41;73.46;94883.91;5018043;28;20187;-68
2022/04/21 04:18:35;;;;;;;15.98;14.52;;;;;;;2.42;73.95;94880.88;5001159;28;20210;-68
2022/04/21 04:21:04;;;;;;;16.60;15.25;;;;;;;2.45;73.59;94879.47;5017993;28;20195;-68
2022/04/21 04:23:36;;;;;;;18.42;16.73;;;;;;;2.50;73.67;94876.63;5019010;28;20329;-68
2022/04/21 04:26:04;;;;;;;18.52;16.67;;;;;;;2.54;73.22;94872.19;5037805;28;20186;-68
2022/04/21 04:28:31;;;;;;;17.35;15.75;;;;;;;2.59;73.38;94871.25;5037718;28;20226;-68
2022/04/21 04:30:59;;;;;;;17.13;15.63;;;;;;;2.62;73.38;94871.44;5020441;28;20194;-68
2022/04/21 04:33:26;;;;;;;20.85;18.95;;;;;;;2.64;73.02;94868.41;5020605;28;20199;-68
2022/04/21 04:35:55;;;;;;;24.27;22.13;;;;;;;2.73;73.16;94871.22;5020154;28;20202;-68
2022/04/21 04:38:23;;;;;;;29.20;26.50;;;;;;;2.80;72.79;94860.72;5019756;28;20595;-69
2022/04/21 04:40:52;;;;;;;32.80;29.77;;;;;;;2.88;72.60;94865.41;5019879;28;20210;-69
2022/04/21 04:43:19;;;;;;;45.45;40.85;;;;;;;2.91;72.59;94866.72;5037240;28;20178;-68
2022/04/21 04:48:34;;;;;;;41.50;37.47;;;;;;;2.88;73.16;94877.09;5019816;28;20210;-68
2022/04/21 04:51:02;;;;;;;47.40;43.08;;;;;;;2.92;73.58;94874.56;5036510;28;20209;-68
2022/04/21 04:53:30;;;;;;;48.28;43.97;;;;;;;2.94;73.25;94875.09;5020228;28;20199;-68
2022/04/21 04:55:59;;;;;;;44.13;40.03;;;;;;;2.97;73.45;94874.44;5036955;28;20197;-68
2022/04/21 04:58:27;;;;;;;45.85;41.60;;;;;;;3.02;73.58;94887.16;5037263;28;20198;-68
2022/04/21 05:00:56;;;;;;;41.60;37.80;;;;;;;3.08;74.03;94883.16;5036955;28;20201;-68
2022/04/21 05:03:25;;;;;;;43.00;39.10;;;;;;;3.13;73.43;94886.59;5037393;28;20193;-68
2022/04/21 05:05:53;;;;;;;40.10;36.45;;;;;;;3.19;73.33;94875.56;5019777;28;20264;-68
2022/04/21 05:08:20;;;;;;;32.83;30.00;;;;;;;3.22;72.91;94877.66;5019617;28;20199;-68
2022/04/21 05:10:53;;;;;;;32.47;29.77;;;;;;;3.26;73.11;94884.09;5020241;28;20205;-68
2022/04/21 05:13:23;;;;;;;33.55;30.60;;;;;;;3.30;72.84;94887.81;5036722;28;20611;-68
2022/04/21 05:15:52;;;;;;;35.33;31.95;;;;;;;3.34;72.88;94886.91;5019743;28;20203;-69
2022/04/21 05:18:21;;;;;;;36.58;33.17;;;;;;;3.35;72.75;94899.41;5035958;28;20194;-68
2022/04/21 05:20:52;;;;;;;36.20;32.90;;;;;;;3.34;72.80;94891.50;5036971;28;20202;-68
2022/04/21 05:23:22;;;;;;;33.67;30.63;;;;;;;3.36;73.24;94890.09;5019465;28;20230;-69
2022/04/21 05:25:51;;;;;;;33.22;30.20;;;;;;;3.38;73.03;94890.59;5018601;28;20222;-68
2022/04/21 05:28:19;;;;;;;32.33;29.23;;;;;;;3.45;73.61;94897.50;5036589;28;20190;-68
2022/04/21 05:30:58;;;;;;;33.28;30.25;;;;;;;3.57;73.15;94897.75;5019236;28;20212;-68
2022/04/21 05:33:27;;;;;;;37.08;33.78;;;;;;;3.69;72.45;94899.91;5036508;28;20198;-68
2022/04/21 05:35:59;;;;;;;39.63;35.95;;;;;;;3.70;72.84;94899.56;5036644;28;20212;-68
2022/04/21 05:38:27;;;;;;;48.33;44.00;;;;;;;3.77;72.92;94893.69;5036602;28;20229;-68
2022/04/21 05:40:56;;;;;;;50.03;45.83;;;;;;;3.87;72.92;94896.13;5036353;28;20198;-68
2022/04/21 05:43:30;;;;;;;44.97;41.13;;;;;;;3.95;72.18;94889.91;5019311;28;20260;-68
2022/04/21 05:46:00;;;;;;;38.10;34.65;;;;;;;4.01;72.37;94885.13;5036203;28;20242;-68
2022/04/21 05:48:29;;;;;;;28.23;25.73;;;;;;;4.06;72.67;94877.59;5017913;28;20207;-68
2022/04/21 05:50:57;;;;;;;23.42;21.23;;;;;;;4.15;72.64;94879.56;5036050;28;20193;-68
2022/04/21 05:53:27;;;;;;;19.83;18.17;;;;;;;4.21;71.98;94876.38;5018654;28;20197;-68
2022/04/21 05:55:56;;;;;;;18.23;16.73;;;;;;;4.27;71.83;94874.28;5035249;28;20233;-68
2022/04/21 05:58:24;;;;;;;19.73;18.05;;;;;;;4.27;71.60;94885.19;5036048;28;20281;-68
2022/04/21 06:00:55;;;;;;;18.67;17.15;;;;;;;4.23;71.93;94885.03;5019223;28;20681;-68
2022/04/21 06:03:26;;;;;;;17.23;15.73;;;;;;;4.26;72.17;94884.41;5034976;28;20236;-68
2022/04/21 06:05:55;;;;;;;15.55;14.05;;;;;;;4.33;71.66;94883.94;5035873;28;20320;-68
2022/04/21 06:08:23;;;;;;;15.63;14.43;;;;;;;4.38;71.01;94874.78;5035006;28;20202;-68
2022/04/21 06:10:51;;;;;;;17.00;15.48;;;;;;;4.40;71.29;94872.56;5035821;28;20194;-67
2022/04/21 06:13:19;;;;;;;15.95;14.60;;;;;;;4.43;71.07;94880.09;5035457;28;20190;-68
2022/04/21 06:15:47;;;;;;;17.13;15.63;;;;;;;4.44;71.19;94882.50;5035812;28;20270;-68
2022/04/21 06:18:16;;;;;;;17.60;16.15;;;;;;;4.50;70.67;94883.16;5035719;28;20583;-68
2022/04/21 06:20:47;;;;;;;17.27;15.88;;;;;;;4.48;70.93;94872.56;5035374;28;20198;-68
2022/04/21 06:23:15;;;;;;;16.88;15.50;;;;;;;4.52;71.11;94878.19;5019147;28;20234;-68
2022/04/21 06:25:43;;;;;;;17.88;16.20;;;;;;;4.59;70.94;94879.31;5015683;28;20211;-68
2022/04/21 06:28:12;;;;;;;17.45;16.05;;;;;;;4.63;70.39;94874.03;5015462;28;20183;-68
2022/04/21 06:30:41;;;;;;;18.88;17.27;;;;;;;4.61;70.63;94879.00;5015466;28;20242;-68
2022/04/21 06:33:09;;;;;;;18.02;16.50;;;;;;;4.63;71.11;94870.50;5015425;28;20191;-68
2022/04/21 06:35:38;;;;;;;17.77;16.30;;;;;;;4.70;70.41;94876.28;4997899;28;20213;-68
2022/04/21 06:38:13;;;;;;;17.10;15.70;;;;;;;4.73;70.75;94872.91;4998060;28;20246;-68
2022/04/21 06:40:42;;;;;;;17.75;16.25;;;;;;;4.77;70.67;94879.34;4998389;28;20199;-68
2022/04/21 06:48:42;;;;;;;16.30;14.90;;;;;;;4.91;70.25;94880.00;5015391;28;20199;-67
2022/04/21 06:51:11;;;;;;;16.05;14.68;;;;;;;4.97;69.22;94875.16;4998156;28;20222;-68
2022/04/21 06:53:42;;;;;;;16.33;15.02;;;;;;;4.96;69.07;94871.63;5015483;28;20195;-68
2022/04/21 06:56:10;;;;;;;15.50;14.10;;;;;;;4.98;68.73;94874.06;4997950;28;20553;-67
2022/04/21 06:58:40;;;;;;;14.13;12.88;;;;;;;5.01;68.69;94873.38;5014849;28;20183;-67
2022/04/21 07:01:08;;;;;;;13.40;12.38;;;;;;;5.05;68.63;94869.69;4997376;28;20633;-68
2022/04/21 07:03:36;;;;;;;15.10;13.80;;;;;;;5.13;68.52;94873.56;4998152;28;20298;-68
2022/04/21 07:06:04;;;;;;;16.48;15.18;;;;;;;5.15;68.78;94876.75;5015143;28;20218;-68
2022/04/21 07:08:31;;;;;;;17.70;16.27;;;;;;;5.17;68.77;94881.91;4997909;28;20217;-68
2022/04/21 07:11:01;;;;;;;18.58;17.05;;;;;;;5.19;68.55;94877.75;4997935;28;20269;-68
2022/04/21 07:13:28;;;;;;;18.02;16.63;;;;;;;5.24;69.92;94874.81;4997928;28;20537;-68
2022/04/21 07:15:54;;;;;;;18.70;17.15;;;;;;;5.28;68.95;94881.25;5014052;28;20209;-68
2022/04/21 07:18:23;;;;;;;18.52;16.92;;;;;;;5.34;69.44;94879.16;5014920;28;20657;-68
2022/04/21 07:20:51;;;;;;;21.98;20.17;;;;;;;5.39;69.36;94889.91;4998104;28;20206;-68
2022/04/21 07:23:19;;;;;;;26.75;24.45;;;;;;;5.47;69.33;94891.03;5013753;28;20238;-68
2022/04/21 07:25:48;;;;;;;18.75;17.13;;;;;;;5.50;68.32;94890.38;5017315;28;20224;-68
2022/04/21 07:28:18;;;;;;;17.52;15.82;;;;;;;5.42;68.03;94899.41;5034862;28;20183;-68
2022/04/21 07:30:47;;;;;;;18.38;16.73;;;;;;;5.43;67.39;94899.09;5034654;28;20621;-68
2022/04/21 07:33:17;;;;;;;17.98;16.48;;;;;;;5.44;66.57;94910.81;5017636;28;20198;-68
2022/04/21 07:35:46;;;;;;;20.55;18.85;;;;;;;5.47;67.77;94908.25;5034664;28;20170;-68
2022/04/21 07:38:16;;;;;;;21.88;20.08;;;;;;;5.52;66.91;94907.28;5034763;28;20182;-68
2022/04/21 07:40:49;;;;;;;22.55;20.65;;;;;;;5.54;67.20;94905.81;5017499;28;20256;-68
2022/04/21 07:43:19;;;;;;;21.65;19.95;;;;;;;5.61;66.67;94899.84;5034475;28;20187;-68
2022/04/21 07:45:50;;;;;;;22.42;20.63;;;;;;;5.63;66.28;94891.31;5017493;28;20219;-68
2022/04/21 07:48:18;;;;;;;21.88;20.05;;;;;;;5.68;66.94;94889.22;5017373;28;20293;-68
2022/04/21 07:50:46;;;;;;;23.65;21.65;;;;;;;5.82;67.38;94890.97;5035010;28;20186;-68
2022/04/21 07:53:13;;;;;;;22.70;20.88;;;;;;;5.92;67.45;94896.06;5034662;28;20210;-68
2022/04/21 07:55:44;;;;;;;23.23;21.13;;;;;;;6.01;67.44;94894.94;5017047;28;20216;-68
2022/04/21 07:58:14;;;;;;;24.00;21.88;;;;;;;6.12;67.75;94903.59;5017342;28;20236;-68
2022/04/21 08:00:44;;;;;;;23.27;21.17;;;;;;;6.19;66.45;94892.94;5034872;28;20262;-68
2022/04/21 08:03:18;;;;;;;24.40;22.17;;;;;;;6.27;67.25;94891.28;5034697;28;20274;-68
2022/04/21 08:05:46;;;;;;;26.25;23.90;;;;;;;6.36;67.23;94894.78;5034475;28;20249;-68
2022/04/21 08:08:16;;;;;;;24.52;22.42;;;;;;;6.43;66.60;94889.59;5034473;28;20590;-68
2022/04/21 08:10:44;;;;;;;24.80;22.70;;;;;;;6.50;66.75;94887.13;5034918;28;20321;-69
2022/04/21 08:13:17;;;;;;;25.50;23.17;;;;;;;6.48;64.80;94886.66;5037034;28;20193;-68
2022/04/21 08:15:47;;;;;;;26.30;23.77;;;;;;;6.47;66.23;94890.53;5038055;28;20187;-68
2022/04/21 08:18:16;;;;;;;24.15;22.05;;;;;;;6.41;66.54;94902.00;5037934;28;20202;-68
2022/04/21 08:20:44;;;;;;;22.42;20.52;;;;;;;6.46;66.03;94888.94;5037702;28;20664;-68
2022/04/21 08:23:12;;;;;;;24.80;22.40;;;;;;;6.56;66.25;94886.94;5020093;28;20269;-68
2022/04/21 08:34:01;;;;;;;24.08;21.88;;;;;;;6.84;64.78;94887.25;5037456;28;20175;-68
2022/04/21 08:36:29;;;;;;;22.73;20.65;;;;;;;6.89;64.66;94889.78;5037489;28;20183;-68
2022/04/21 08:38:57;;;;;;;23.27;21.17;;;;;;;6.94;66.78;94886.84;5037404;28;20274;-68
2022/04/21 08:41:28;;;;;;;23.83;21.75;;;;;;;7.03;65.62;94873.06;5037397;28;20210;-68
2022/04/21 08:43:57;;;;;;;24.83;22.58;;;;;;;7.08;67.02;94883.81;5020103;28;20536;-69
2022/04/21 08:46:27;;;;;;;25.45;23.08;;;;;;;7.11;66.51;94877.66;5020121;28;20216;-68
2022/04/21 08:48:55;;;;;;;25.42;23.25;;;;;;;7.17;65.14;94879.88;5020182;28;20207;-68
2022/04/21 08:51:23;;;;;;;24.33;22.13;;;;;;;7.19;65.86;94879.56;5037121;28;20607;-68
2022/04/21 08:53:53;;;;;;;24.83;22.52;;;;;;;7.16;65.71;94874.75;5019691;28;20217;-68
2022/04/21 08:56:21;;;;;;;23.40;21.30;;;;;;;7.03;65.34;94867.59;5036999;28;20198;-67
2022/04/21 08:58:48;;;;;;;24.55;22.45;;;;;;;6.96;66.29;94868.91;5037225;28;20213;-68
2022/04/21 09:01:19;;;;;;;22.65;20.52;;;;;;;7.00;65.26;94867.09;5019990;28;20210;-68
2022/04/21 09:03:53;;;;;;;23.17;21.15;;;;;;;7.08;65.60;94864.63;5019942;28;20206;-68
2022/04/21 09:06:22;;;;;;;24.58;22.38;;;;;;;7.15;65.25;94864.88;5037071;28;20206;-68
2022/04/21 09:09:16;;;;;;;24.33;22.08;;;;;;;7.18;65.82;94862.28;5020265;28;20190;-68
2022/04/21 09:11:45;;;;;;;22.77;20.80;;;;;;;7.29;65.66;94870.09;5037054;28;20225;-68
2022/04/21 09:14:17;;;;;;;23.38;21.23;;;;;;;7.29;65.57;94857.19;5019679;28;20187;-68
2022/04/21 09:16:45;;;;;;;23.58;21.38;;;;;;;7.38;64.98;94855.16;5019282;28;20209;-68
2022/04/21 09:19:19;;;;;;;24.15;21.95;;;;;;;7.45;64.58;94865.59;5019672;28;20206;-68
2022/04/21 09:21:50;;;;;;;23.52;21.40;;;;;;;7.54;65.43;94851.78;5019224;28;20253;-68
2022/04/21 09:24:22;;;;;;;23.60;21.40;;;;;;;7.60;63.88;94851.22;5036360;28;20285;-68
2022/04/21 09:26:51;;;;;;;25.42;22.92;;;;;;;7.64;64.71;94862.34;5019378;28;20222;-68
2022/04/21 09:29:30;;;;;;;26.48;23.85;;;;;;;7.70;64.65;94855.50;5019358;28;20194;-68
2022/04/21 09:31:59;;;;;;;27.63;25.13;;;;;;;7.63;63.29;94860.75;5036580;28;20277;-67
2022/04/21 09:34:29;;;;;;;26.40;24.00;;;;;;;7.70;63.42;94858.25;5019452;28;20225;-67
2022/04/21 09:36:58;;;;;;;25.75;23.25;;;;;;;7.79;64.05;94860.88;5036558;28;20178;-67
2022/04/21 09:39:27;;;;;;;24.33;21.92;;;;;;;7.75;64.35;94866.25;5019251;28;20198;-67
2022/04/21 09:41:56;;;;;;;25.23;23.02;;;;;;;7.75;63.79;94863.50;5019119;28;20206;-67
2022/04/21 09:47:20;;;;;;;24.08;21.77;;;;;;;7.82;63.71;94855.50;5018670;28;20214;-69
2022/04/21 09:49:53;;;;;;;22.70;20.50;;;;;;;7.77;64.36;94866.72;5036206;28;20649;-68
2022/04/21 09:52:31;;;;;;;24.58;22.08;;;;;;;7.63;64.53;94853.31;5018554;28;20201;-67
2022/04/21 09:54:58;;;;;;;24.05;21.77;;;;;;;7.54;64.62;94865.50;5019133;28;20198;-68
2022/04/21 09:57:34;;;;;;;23.50;21.30;;;;;;;7.62;63.94;94859.13;5019143;28;20190;-68
2022/04/21 10:00:03;;;;;;;24.17;21.80;;;;;;;7.77;64.06;94863.16;5036177;28;20201;-68
2022/04/21 10:02:31;;;;;;;24.05;21.65;;;;;;;7.87;64.28;94858.03;5035994;28;20213;-68
2022/04/21 10:05:01;;;;;;;24.67;22.38;;;;;;;7.92;64.47;94854.28;5035568;28;20301;-68
2022/04/21 10:07:29;;;;;;;23.30;20.98;;;;;;;8.05;64.80;94857.81;5018861;28;20210;-68
2022/04/21 10:09:58;;;;;;;24.65;22.42;;;;;;;8.15;64.42;94851.88;5018247;28;20282;-68
2022/04/21 10:12:26;;;;;;;24.60;22.30;;;;;;;8.11;62.89;94849.03;5018727;28;20195;-68
2022/04/21 10:14:55;;;;;;;26.35;23.95;;;;;;;8.01;62.71;94845.94;5018618;28;20202;-68
2022/04/21 10:17:23;;;;;;;26.42;23.92;;;;;;;7.95;63.72;94837.91;5018351;28;20197;-68
2022/04/21 10:19:52;;;;;;;28.02;25.27;;;;;;;8.03;63.42;94838.16;5035894;28;20198;-68
2022/04/21 10:22:21;;;;;;;25.40;22.83;;;;;;;8.03;63.79;94836.22;5018178;28;20238;-68
2022/04/21 10:24:49;;;;;;;26.23;23.63;;;;;;;7.93;63.36;94839.41;5018235;28;20267;-68
2022/04/21 10:27:40;;;;;;;26.45;23.98;;;;;;;8.04;64.25;94837.81;5035466;28;20275;-68
2022/04/21 10:30:12;;;;;;;25.17;22.70;;;;;;;8.16;65.01;94834.25;5035219;28;20285;-68
2022/04/21 10:32:49;;;;;;;26.52;23.92;;;;;;;8.25;63.69;94829.47;5018321;28;20602;-68
2022/04/21 10:35:51;;;;;;;26.10;23.40;;;;;;;8.38;64.17;94828.31;5034819;28;20198;-68
2022/04/21 10:38:27;;;;;;;25.52;23.08;;;;;;;8.40;63.16;94833.50;5035544;28;20197;-68
2022/04/21 10:41:03;;;;;;;25.30;22.67;;;;;;;8.30;63.14;94831.16;5017945;28;20197;-68
2022/04/21 10:44:05;;;;;;;25.02;22.75;;;;;;;8.25;62.83;94831.41;5018399;28;20236;-68
2022/04/21 10:46:33;;;;;;;24.48;22.25;;;;;;;8.15;62.78;94835.41;5031975;28;20210;-68
2022/04/21 10:49:02;;;;;;;24.73;22.48;;;;;;;8.07;62.77;94823.38;5035153;28;20205;-68
2022/04/21 10:58:52;;;;;;;24.60;22.20;;;;;;;8.26;64.09;94830.25;5035039;28;20197;-69
2022/04/21 11:01:38;;;;;;;24.83;22.52;;;;;;;8.56;65.37;94826.13;4981119;28;20212;-68
2022/04/21 11:04:21;;;;;;;24.45;21.92;;;;;;;8.88;66.88;94823.56;5034995;28;20202;-68
2022/04/21 11:06:52;;;;;;;25.05;22.73;;;;;;;9.14;65.52;94818.41;5030944;28;20321;-68
2022/04/21 11:09:37;;;;;;;25.33;22.83;;;;;;;9.29;62.81;94825.13;5035143;28;20190;-69
2022/04/21 11:12:16;;;;;;;25.45;22.85;;;;;;;9.41;63.33;94821.53;5017840;28;20595;-67
2022/04/21 11:14:44;;;;;;;23.33;20.77;;;;;;;9.57;62.94;94818.81;5017790;28;20206;-67
2022/04/21 11:17:11;;;;;;;17.75;15.85;;;;;;;10.00;62.48;94822.69;5034177;28;20206;-67
2022/04/21 11:19:44;;;;;;;19.17;17.25;;;;;;;10.55;60.92;94823.63;5035009;28;20191;-68
2022/04/21 11:22:15;;;;;;;21.30;19.10;;;;;;;10.77;59.84;94822.16;5033857;28;20291;-67
2022/04/21 11:25:06;;;;;;;23.63;21.20;;;;;;;11.02;59.71;94815.22;5034806;28;20249;-68
2022/04/21 11:27:45;;;;;;;20.88;18.88;;;;;;;11.31;58.80;94813.06;5034759;28;20229;-67
2022/04/21 11:30:15;;;;;;;22.48;20.17;;;;;;;11.42;57.33;94810.53;5017621;28;20213;-67
2022/04/21 11:32:53;;;;;;;25.00;22.48;;;;;;;11.43;56.38;94810.16;5017623;28;20233;-67
2022/04/21 11:35:22;;;;;;;22.55;20.15;;;;;;;11.55;57.74;94801.72;5034890;28;20197;-67
2022/04/21 11:37:55;;;;;;;23.52;21.13;;;;;;;11.78;57.53;94801.75;5017736;28;20289;-67
2022/04/21 11:40:40;;;;;;;24.13;21.77;;;;;;;11.84;56.01;94805.03;5017601;28;20544;-68
2022/04/21 11:43:17;;;;;;;24.42;21.92;;;;;;;11.84;57.15;94795.94;5017906;28;20190;-68
2022/04/21 11:45:55;;;;;;;24.85;22.35;;;;;;;11.84;57.89;94794.00;5017158;28;20226;-67
2022/04/21 11:48:28;;;;;;;25.08;22.52;;;;;;;11.74;57.12;94797.31;5020149;28;20610;-67
2022/04/21 11:50:57;;;;;;;25.50;21.92;;;;;;;11.64;57.33;94784.09;5021213;28;20202;-68
2022/04/21 11:53:34;;;;;;;24.80;22.33;;;;;;;11.61;57.68;94780.09;5037459;28;20226;-67
2022/04/21 11:56:02;;;;;;;25.80;23.20;;;;;;;11.68;56.62;94782.22;5021163;28;20225;-67
2022/04/21 11:58:31;;;;;;;25.75;23.02;;;;;;;11.87;58.42;94775.84;5021072;28;20275;-67
2022/04/21 12:06:38;;;;;;;23.85;21.35;;;;;;;12.32;55.24;94768.72;5020763;28;20308;-68
2022/04/21 12:09:07;;;;;;;22.77;20.67;;;;;;;12.36;55.58;94764.03;5038194;28;20186;-67
2022/04/21 12:11:36;;;;;;;22.65;20.35;;;;;;;12.51;55.01;94763.06;5021032;28;20210;-68
2022/04/21 12:14:07;;;;;;;22.00;19.90;;;;;;;12.69;56.23;94755.03;5038123;28;20618;-67
2022/04/21 12:16:45;;;;;;;22.20;20.02;;;;;;;12.91;56.09;94753.34;5020813;28;20209;-67
2022/04/21 12:19:17;;;;;;;23.40;21.02;;;;;;;12.91;53.69;94754.16;5020632;28;20202;-67
2022/04/21 12:21:56;;;;;;;22.48;20.38;;;;;;;12.93;54.68;94745.50;5037639;28;20300;-68
2022/04/21 12:24:29;;;;;;;21.42;19.30;;;;;;;12.91;55.62;94756.13;5020427;28;20202;-67
2022/04/21 12:26:57;;;;;;;20.83;18.65;;;;;;;12.81;54.18;94752.03;5037785;28;20222;-67
2022/04/21 12:29:29;;;;;;;21.52;19.52;;;;;;;12.71;55.14;94747.97;5037954;28;20190;-67